createdAt,value
2023-03-26T00:02:29.847Z,99890.88
2023-03-26T00:05:32.432Z,99888.13
2023-03-26T00:08:36.028Z,99921.72
2023-03-26T00:11:38.438Z,99893.56
2023-03-26T00:14:41.479Z,99900.22
2023-03-26T00:17:46.457Z,99892.38
2023-03-26T00:20:48.894Z,99912.72
2023-03-26T00:23:53.656Z,99902.16
2023-03-26T00:26:55.997Z,99936.88
2023-03-26T00:29:59.801Z,99921.28
2023-03-26T00:33:02.799Z,99920.13
2023-03-26T00:36:09.886Z,99926.34
2023-03-26T00:39:14.161Z,99902.50
2023-03-26T00:42:16.541Z,99925.19
2023-03-26T00:45:21.412Z,99920.88
2023-03-26T00:48:34.325Z,99929.06
2023-03-26T00:51:44.460Z,99922.03
2023-03-26T00:54:48.387Z,99918.94
2023-03-26T00:57:50.882Z,99925.94
2023-03-26T01:00:59.087Z,99922.44
2023-03-26T01:04:27.562Z,99915.41
2023-03-26T01:07:31.518Z,99924.00
2023-03-26T01:10:38.732Z,99919.31
2023-03-26T01:13:45.127Z,99906.41
2023-03-26T01:16:52.316Z,99923.97
2023-03-26T01:20:19.938Z,99923.19
2023-03-26T01:23:24.050Z,99905.22
2023-03-26T01:27:00.982Z,99917.72
2023-03-26T01:30:11.076Z,99921.63
2023-03-26T01:33:44.090Z,99908.31
2023-03-26T01:37:13.377Z,99927.06
2023-03-26T01:40:26.743Z,99930.56
2023-03-26T01:43:51.323Z,99937.97
2023-03-26T01:46:54.108Z,99945.38
2023-03-26T01:49:56.564Z,99925.84
2023-03-26T01:52:58.995Z,99944.19
2023-03-26T01:56:16.656Z,99941.09
2023-03-26T01:59:53.774Z,99918.78
2023-03-26T02:03:20.029Z,99947.31
2023-03-26T02:06:31.856Z,99953.13
2023-03-26T02:09:40.134Z,99930.47
2023-03-26T02:12:43.516Z,99935.16
2023-03-26T02:16:03.567Z,99956.97
2023-03-26T02:19:10.116Z,99956.59
2023-03-26T02:22:15.711Z,99964.78
2023-03-26T02:25:21.261Z,99952.31
2023-03-26T02:28:25.860Z,99969.47
2023-03-26T02:31:28.447Z,99958.91
2023-03-26T02:34:31.379Z,99944.44
2023-03-26T02:37:36.568Z,99958.53
2023-03-26T02:40:47.927Z,99942.53
2023-03-26T02:43:50.526Z,99952.69
2023-03-26T02:46:55.918Z,99942.91
2023-03-26T02:50:32.615Z,99926.09
2023-03-26T02:53:53.848Z,99920.63
2023-03-26T02:57:14.877Z,99942.13
2023-03-26T03:00:35.839Z,99928.81
2023-03-26T03:04:04.273Z,99942.47
2023-03-26T03:07:14.393Z,99947.16
2023-03-26T03:10:16.812Z,99954.94
2023-03-26T03:13:51.790Z,99953.78
2023-03-26T03:17:00.210Z,99944.00
2023-03-26T03:20:02.590Z,99942.41
2023-03-26T03:23:05.928Z,99943.16
2023-03-26T03:26:14.405Z,99953.69
2023-03-26T03:29:18.678Z,99941.59
2023-03-26T03:32:22.778Z,99953.34
2023-03-26T03:35:30.337Z,99950.16
2023-03-26T03:38:34.592Z,99950.97
2023-03-26T03:41:36.980Z,99952.50
2023-03-26T03:44:42.119Z,99943.91
2023-03-26T03:47:56.829Z,99966.13
2023-03-26T03:51:06.684Z,99936.84
2023-03-26T03:54:20.885Z,99969.63
2023-03-26T03:57:23.846Z,99950.47
2023-03-26T04:00:41.664Z,99951.97
2023-03-26T04:04:04.618Z,99964.94
2023-03-26T04:07:31.265Z,99968.41
2023-03-26T04:10:39.575Z,99947.66
2023-03-26T04:13:48.125Z,99947.28
2023-03-26T04:17:09.438Z,99951.19
2023-03-26T04:20:16.410Z,99938.22
2023-03-26T04:23:23.329Z,99953.50
2023-03-26T04:26:32.547Z,99965.59
2023-03-26T04:29:44.672Z,99948.41
2023-03-26T04:36:01.660Z,99967.16
2023-03-26T04:39:06.784Z,99964.78
2023-03-26T04:42:30.337Z,99946.75
2023-03-26T04:45:45.913Z,99969.47
2023-03-26T04:48:51.965Z,99967.50
2023-03-26T04:51:54.463Z,99961.28
2023-03-26T04:55:28.195Z,99966.72
2023-03-26T04:58:39.952Z,99959.31
2023-03-26T05:01:46.014Z,99958.06
2023-03-26T05:04:50.821Z,99968.69
2023-03-26T05:07:54.054Z,99960.91
2023-03-26T05:10:57.199Z,99969.06
2023-03-26T05:14:06.552Z,99963.22
2023-03-26T05:17:14.947Z,99974.56
2023-03-26T05:20:22.820Z,99971.47
2023-03-26T05:23:25.267Z,99963.22
2023-03-26T05:26:37.678Z,99977.28
2023-03-26T05:29:40.084Z,99974.97
2023-03-26T05:32:44.015Z,99953.88
2023-03-26T05:35:49.565Z,99966.44
2023-03-26T05:38:52.398Z,99960.59
2023-03-26T05:42:17.580Z,99968.81
2023-03-26T05:45:52.507Z,99944.63
2023-03-26T05:49:00.889Z,99954.06
2023-03-26T05:52:07.241Z,99964.59
2023-03-26T05:55:29.892Z,99960.34
2023-03-26T05:58:52.070Z,99950.59
2023-03-26T06:02:13.229Z,99945.59
2023-03-26T06:05:37.428Z,99947.56
2023-03-26T06:09:01.708Z,99933.91
2023-03-26T06:12:06.235Z,99919.91
2023-03-26T06:15:09.611Z,99930.84
2023-03-26T06:18:33.736Z,99950.03
2023-03-26T06:21:54.789Z,99931.69
2023-03-26T06:25:01.060Z,99949.25
2023-03-26T06:28:30.451Z,99962.56
2023-03-26T06:31:41.362Z,99955.19
2023-03-26T06:34:56.124Z,99954.44
2023-03-26T06:37:58.893Z,99942.34
2023-03-26T06:41:06.255Z,99946.69
2023-03-26T06:44:29.044Z,99946.69
2023-03-26T06:47:51.649Z,99944.81
2023-03-26T06:51:12.698Z,99940.16
2023-03-26T06:54:33.365Z,99939.78
2023-03-26T06:57:55.205Z,99935.91
2023-03-26T07:01:16.264Z,99935.16
2023-03-26T07:04:37.788Z,99937.53
2023-03-26T07:08:00.683Z,99937.16
2023-03-26T07:11:20.786Z,99940.66
2023-03-26T07:15:00.403Z,99939.91
2023-03-26T07:18:29.220Z,99922.69
2023-03-26T07:21:32.304Z,99914.47
2023-03-26T07:24:44.213Z,99932.81
2023-03-26T07:28:27.725Z,99938.22
2023-03-26T07:32:08.020Z,99938.97
2023-03-26T07:35:44.746Z,99926.41
2023-03-26T07:39:26.125Z,99925.25
2023-03-26T07:43:27.624Z,99942.00
2023-03-26T07:46:37.246Z,99947.47
2023-03-26T07:49:51.825Z,99938.53
2023-03-26T07:53:17.738Z,99937.78
2023-03-26T07:56:49.449Z,99945.22
2023-03-26T08:00:31.099Z,99948.38
2023-03-26T08:03:57.624Z,99962.06
2023-03-26T08:07:52.861Z,99942.94
2023-03-26T08:11:53.708Z,99946.81
2023-03-26T08:15:32.876Z,99949.97
2023-03-26T08:18:35.710Z,99952.31
2023-03-26T08:22:00.012Z,99955.44
2023-03-26T08:25:29.730Z,99952.34
2023-03-26T08:28:40.587Z,99957.03
2023-03-26T08:31:44.615Z,99953.53
2023-03-26T08:34:47.135Z,99962.50
2023-03-26T08:37:49.728Z,99949.63
2023-03-26T08:41:07.350Z,99959.00
2023-03-26T08:44:09.991Z,99954.69
2023-03-26T08:47:27.538Z,99954.69
2023-03-26T08:50:56.760Z,99944.53
2023-03-26T08:54:31.664Z,99946.09
2023-03-26T08:57:39.864Z,99948.06
2023-03-26T09:01:07.131Z,99947.66
2023-03-26T09:04:21.340Z,99932.81
2023-03-26T09:07:38.997Z,99928.13
2023-03-26T09:11:03.902Z,99928.13
2023-03-26T09:14:24.470Z,99919.53
2023-03-26T09:17:58.125Z,99921.88
2023-03-26T09:21:25.797Z,99912.88
2023-03-26T09:24:51.527Z,99917.97
2023-03-26T09:28:21.947Z,99913.28
2023-03-26T09:31:49.173Z,99901.56
2023-03-26T09:35:03.799Z,99908.97
2023-03-26T09:38:37.065Z,99905.84
2023-03-26T09:41:49.934Z,99903.53
2023-03-26T09:45:21.507Z,99907.03
2023-03-26T09:48:45.910Z,99905.06
2023-03-26T09:51:56.024Z,99892.59
2023-03-26T09:55:04.064Z,99900.00
2023-03-26T09:58:27.088Z,99901.19
2023-03-26T10:01:44.831Z,99898.81
2023-03-26T10:05:10.285Z,99896.88
2023-03-26T10:08:32.329Z,99905.88
2023-03-26T10:11:41.189Z,99880.06
2023-03-26T10:15:00.937Z,99872.25
2023-03-26T10:18:27.488Z,99864.84
2023-03-26T10:22:10.616Z,99865.63
2023-03-26T10:25:41.067Z,99859.38
2023-03-26T10:29:03.641Z,99863.69
2023-03-26T10:32:21.942Z,99847.28
2023-03-26T10:35:27.349Z,99844.16
2023-03-26T10:39:02.104Z,99834.00
2023-03-26T10:42:30.818Z,99818.38
2023-03-26T10:46:14.472Z,99816.81
2023-03-26T10:49:26.008Z,99812.53
2023-03-26T10:53:14.722Z,99803.53
2023-03-26T10:56:27.806Z,99804.72
2023-03-26T10:59:30.718Z,99780.53
2023-03-26T11:02:41.072Z,99786.34
2023-03-26T11:05:51.251Z,99773.88
2023-03-26T11:09:12.404Z,99774.63
2023-03-26T11:12:26.305Z,99768.00
2023-03-26T11:15:46.868Z,99759.84
2023-03-26T11:19:00.011Z,99746.16
2023-03-26T11:22:27.583Z,99733.69
2023-03-26T11:26:07.126Z,99738.72
2023-03-26T11:29:32.145Z,99730.91
2023-03-26T11:32:52.092Z,99726.66
2023-03-26T11:35:58.074Z,99712.59
2023-03-26T11:39:01.796Z,99713.34
2023-03-26T11:42:11.194Z,99703.59
2023-03-26T11:45:24.308Z,99689.91
2023-03-26T11:48:34.206Z,99686.41
2023-03-26T11:51:38.457Z,99689.53
2023-03-26T11:54:40.863Z,99683.66
2023-03-26T11:57:50.515Z,99680.94
2023-03-26T12:00:54.361Z,99667.66
2023-03-26T12:04:13.640Z,99663.75
2023-03-26T12:07:21.139Z,99651.25
2023-03-26T12:10:25.001Z,99660.25
2023-03-26T12:13:42.006Z,99633.69
2023-03-26T12:17:02.661Z,99629.75
2023-03-26T12:20:25.082Z,99629.75
2023-03-26T12:24:05.208Z,99617.69
2023-03-26T12:27:50.928Z,99614.53
2023-03-26T12:31:01.497Z,99591.53
2023-03-26T12:34:07.782Z,99600.88
2023-03-26T12:37:34.422Z,99595.78
2023-03-26T12:40:39.366Z,99586.81
2023-03-26T12:44:56.465Z,99587.22
2023-03-26T12:47:58.585Z,99591.88
2023-03-26T12:51:06.494Z,99580.94
2023-03-26T12:54:23.770Z,99580.94
2023-03-26T12:57:39.123Z,99579.75
2023-03-26T13:01:20.045Z,99571.16
2023-03-26T13:04:34.542Z,99564.91
2023-03-26T13:08:01.900Z,99563.34
2023-03-26T13:11:18.970Z,99560.22
2023-03-26T13:14:21.664Z,99565.69
2023-03-26T13:18:04.448Z,99550.91
2023-03-26T13:21:31.872Z,99545.38
2023-03-26T13:24:46.724Z,99536.78
2023-03-26T13:28:10.959Z,99529.38
2023-03-26T13:31:24.854Z,99524.34
2023-03-26T13:34:50.458Z,99516.88
2023-03-26T13:38:06.386Z,99521.19
2023-03-26T13:41:45.820Z,99493.47
2023-03-26T13:45:04.835Z,99496.22
2023-03-26T13:48:16.909Z,99504.03
2023-03-26T13:51:31.956Z,99476.31
2023-03-26T13:54:47.235Z,99489.94
2023-03-26T13:58:02.182Z,99487.59
2023-03-26T14:01:11.126Z,99459.13
2023-03-26T14:04:21.907Z,99445.91
2023-03-26T14:07:28.310Z,99452.88
2023-03-26T14:10:37.477Z,99457.16
2023-03-26T14:13:52.057Z,99457.94
2023-03-26T14:16:58.541Z,99469.66
2023-03-26T14:20:24.158Z,99450.16
2023-03-26T14:23:48.432Z,99451.69
2023-03-26T14:27:08.961Z,99447.41
2023-03-26T14:30:17.830Z,99436.06
2023-03-26T14:33:45.000Z,99442.31
2023-03-26T14:36:53.043Z,99440.75
2023-03-26T14:40:16.883Z,99433.75
2023-03-26T14:43:48.180Z,99417.34
2023-03-26T14:46:53.390Z,99409.50
2023-03-26T14:50:13.986Z,99411.47
2023-03-26T14:53:25.769Z,99406.03
2023-03-26T14:56:44.670Z,99399.41
2023-03-26T15:00:05.983Z,99391.19
2023-03-26T15:03:11.068Z,99388.47
2023-03-26T15:06:25.338Z,99375.97
2023-03-26T15:09:49.696Z,99375.59
2023-03-26T15:13:16.504Z,99384.56
2023-03-26T15:16:21.706Z,99371.31
2023-03-26T15:19:36.773Z,99354.91
2023-03-26T15:23:10.257Z,99352.94
2023-03-26T15:26:37.125Z,99346.34
2023-03-26T15:29:57.817Z,99343.97
2023-03-26T15:33:36.582Z,99324.50
2023-03-26T15:37:05.650Z,99339.69
2023-03-26T15:40:26.105Z,99336.19
2023-03-26T15:44:23.452Z,99322.53
2023-03-26T15:47:49.082Z,99329.56
2023-03-26T15:51:15.505Z,99316.69
2023-03-26T15:54:54.114Z,99304.22
2023-03-26T15:58:04.841Z,99306.97
2023-03-26T16:01:37.273Z,99303.41
2023-03-26T16:05:03.344Z,99298.34
2023-03-26T16:08:18.962Z,99290.53
2023-03-26T16:11:42.918Z,99285.50
2023-03-26T16:14:48.116Z,99274.56
2023-03-26T16:18:19.180Z,99273.03
2023-03-26T16:21:36.779Z,99271.47
2023-03-26T16:24:46.683Z,99266.78
2023-03-26T16:28:06.506Z,99262.53
2023-03-26T16:31:37.336Z,99272.31
2023-03-26T16:34:48.256Z,99265.72
2023-03-26T16:38:05.833Z,99265.75
2023-03-26T16:41:19.692Z,99257.94
2023-03-26T16:44:33.032Z,99263.81
2023-03-26T16:47:43.224Z,99271.66
2023-03-26T16:51:07.276Z,99267.75
2023-03-26T16:54:24.196Z,99264.69
2023-03-26T16:57:28.837Z,99267.78
2023-03-26T17:01:27.436Z,99270.16
2023-03-26T17:04:30.875Z,99265.50
2023-03-26T17:07:38.489Z,99256.94
2023-03-26T17:10:58.556Z,99254.69
2023-03-26T17:14:16.162Z,99258.94
2023-03-26T17:17:40.869Z,99260.88
2023-03-26T17:21:08.875Z,99251.59
2023-03-26T17:24:30.050Z,99264.81
2023-03-26T17:28:29.462Z,99260.94
2023-03-26T17:31:51.129Z,99261.34
2023-03-26T17:35:02.317Z,99253.16
2023-03-26T17:38:24.932Z,99259.84
2023-03-26T17:41:55.418Z,99263.34
2023-03-26T17:45:03.833Z,99255.16
2023-03-26T17:48:21.847Z,99268.41
2023-03-26T17:51:50.565Z,99277.41
2023-03-26T17:54:55.861Z,99277.03
2023-03-26T17:58:00.560Z,99285.22
2023-03-26T18:01:07.565Z,99279.00
2023-03-26T18:04:20.296Z,99270.50
2023-03-26T18:07:26.104Z,99277.47
2023-03-26T18:10:49.913Z,99268.91
2023-03-26T18:14:29.090Z,99276.31
2023-03-26T18:17:32.499Z,99251.06
2023-03-26T18:20:37.202Z,99258.00
2023-03-26T18:23:45.336Z,99252.59
2023-03-26T18:26:54.254Z,99242.47
2023-03-26T18:29:56.941Z,99243.22
2023-03-26T18:33:13.755Z,99239.00
2023-03-26T18:36:19.756Z,99235.44
2023-03-26T18:39:22.317Z,99217.53
2023-03-26T18:42:26.227Z,99219.88
2023-03-26T18:45:34.049Z,99217.13
2023-03-26T18:48:36.653Z,99211.31
2023-03-26T18:51:50.168Z,99203.91
2023-03-26T18:54:59.964Z,99196.53
2023-03-26T18:58:19.370Z,99199.59
2023-03-26T19:01:25.705Z,99184.44
2023-03-26T19:04:31.381Z,99181.31
2023-03-26T19:07:35.994Z,99187.53
2023-03-26T19:10:38.783Z,99144.41
2023-03-26T19:13:44.259Z,99168.84
2023-03-26T19:16:50.801Z,99159.13
2023-03-26T19:19:54.955Z,99144.72
2023-03-26T19:23:00.341Z,99150.53
2023-03-26T19:26:04.733Z,99147.00
2023-03-26T19:29:07.448Z,99128.72
2023-03-26T19:32:19.356Z,99135.72
2023-03-26T19:35:23.487Z,99140.41
2023-03-26T19:38:28.604Z,99134.94
2023-03-26T19:41:35.258Z,99128.72
2023-03-26T19:44:39.715Z,99117.06
2023-03-26T19:51:06.538Z,99110.84
2023-03-26T19:51:18.448Z,99113.94
2023-03-26T19:54:15.888Z,99109.28
2023-03-26T19:57:18.740Z,99089.13
2023-03-26T20:00:21.959Z,99086.78
2023-03-26T20:03:30.425Z,99099.91
2023-03-26T20:06:43.644Z,99094.44
2023-03-26T20:09:46.705Z,99070.75
2023-03-26T20:12:54.844Z,99083.94
2023-03-26T20:16:05.250Z,99059.47
2023-03-26T20:19:08.864Z,99064.47
2023-03-26T20:22:16.911Z,99069.91
2023-03-26T20:25:26.098Z,99050.03
2023-03-26T20:28:35.392Z,99044.66
2023-03-26T20:31:45.956Z,99037.63
2023-03-26T20:34:52.398Z,99027.84
2023-03-26T20:37:54.864Z,99035.25
2023-03-26T20:40:57.765Z,99003.41
2023-03-26T20:44:00.511Z,99006.09
2023-03-26T20:47:03.220Z,99009.16
2023-03-26T20:50:06.490Z,98990.91
2023-03-26T20:53:14.386Z,98979.25
2023-03-26T20:56:19.108Z,98988.91
2023-03-26T20:59:26.440Z,99014.66
2023-03-26T21:02:29.346Z,99060.59
2023-03-26T21:05:32.406Z,99064.09
2023-03-26T21:08:34.977Z,99048.59
2023-03-26T21:11:43.687Z,99064.09
2023-03-26T21:14:46.740Z,99047.78
2023-03-26T21:17:51.334Z,99054.34
2023-03-26T21:21:14.113Z,99061.75
2023-03-26T21:24:57.233Z,99067.22
2023-03-26T21:28:17.357Z,99056.31
2023-03-26T21:31:22.354Z,99044.28
2023-03-26T21:34:25.086Z,99055.16
2023-03-26T21:37:27.771Z,99048.16
2023-03-26T21:40:30.806Z,99041.94
2023-03-26T21:43:33.134Z,99031.13
2023-03-26T21:46:36.183Z,99040.41
2023-03-26T21:49:38.764Z,99034.56
2023-03-26T21:52:47.269Z,99024.13
2023-03-26T21:56:01.021Z,99006.22
2023-03-26T21:59:18.512Z,98999.56
2023-03-26T22:02:29.902Z,98998.34
2023-03-26T22:05:55.673Z,98997.56
2023-03-26T22:08:59.564Z,98980.91
2023-03-26T22:12:02.131Z,98992.53
2023-03-26T22:15:04.842Z,98985.19
2023-03-26T22:18:07.429Z,98993.00
2023-03-26T22:21:10.042Z,98975.53
2023-03-26T22:24:12.413Z,98970.84
2023-03-26T22:27:16.121Z,98974.00
2023-03-26T22:30:20.707Z,98998.47
2023-03-26T22:33:23.230Z,98987.22
2023-03-26T22:36:25.673Z,98991.41
2023-03-26T22:39:27.977Z,98974.00
2023-03-26T22:42:30.354Z,98976.38
2023-03-26T22:45:32.679Z,98975.50
2023-03-26T22:48:35.051Z,98970.00
2023-03-26T22:51:37.490Z,98949.50
2023-03-26T22:54:39.869Z,98959.50
2023-03-26T22:57:42.882Z,98950.63
2023-03-26T23:00:46.201Z,98957.94
2023-03-26T23:03:49.088Z,98950.19
2023-03-26T23:06:51.531Z,98935.84
2023-03-26T23:09:53.884Z,98946.69
2023-03-26T23:12:56.436Z,98928.06
2023-03-26T23:15:59.455Z,98938.13
2023-03-26T23:19:01.831Z,98928.88
2023-03-26T23:22:04.195Z,98943.22
2023-03-26T23:25:07.471Z,98919.56
2023-03-26T23:28:10.300Z,98926.88
2023-03-26T23:31:13.207Z,98907.09
2023-03-26T23:34:17.087Z,98909.06
2023-03-26T23:37:23.193Z,98920.66
2023-03-26T23:40:25.799Z,98909.81
2023-03-26T23:43:28.772Z,98902.91
2023-03-26T23:46:33.940Z,98903.63
2023-03-26T23:49:39.234Z,98916.78
2023-03-26T23:52:41.653Z,98907.06
2023-03-26T23:55:48.229Z,98899.28
2023-03-26T23:58:50.602Z,98897.00
